METAR Data
IDs: Format: Raw Decoded Include TAF

Data at: 0900 UTC 26 Jan 2020

KRYV 260855Z AUTO 27006KT 10SM OVC009 00/00 A2988 RMK AO2 T00020002
KRYV 260835Z AUTO 27006KT 10SM OVC009 00/00 A2988 RMK AO2 T00020002
KRYV 260815Z AUTO 27007KT 10SM OVC009 00/00 A2987 RMK AO2 T00030003
KRYV 260755Z AUTO 28007KT 10SM OVC009 00/00 A2987 RMK AO2 T00030003
KRYV 260735Z AUTO 28007KT 10SM OVC009 00/00 A2987 RMK AO2 T00030003
KRYV 260715Z AUTO 27008KT 10SM OVC009 00/00 A2987 RMK AO2 T00030003
KRYV 260655Z AUTO 27006KT 10SM OVC009 00/00 A2986 RMK AO2 T00030003
KRYV 260635Z AUTO 27007KT 10SM OVC011 00/00 A2986 RMK AO2 T00030003
KRYV 260615Z AUTO 27006KT 10SM OVC011 00/00 A2987 RMK AO2 T00030003
KRYV 260555Z AUTO 27004KT 10SM OVC011 00/00 A2986 RMK AO2 T00040004 10006 20001 400100000
KRYV 260535Z AUTO 28006KT 10SM BKN011 OVC020 00/00 A2986 RMK AO2 T00030003
KRYV 260515Z AUTO 28007KT 10SM BKN009 OVC020 00/00 A2986 RMK AO2 T00030003
KRYV 260455Z AUTO 28008KT 10SM OVC009 00/00 A2986 RMK AO2 T00030003
KRYV 260435Z AUTO 28006KT 10SM BKN006 OVC011 00/00 A2986 RMK AO2 T00030003
KRYV 260415Z AUTO 28007KT 5SM BR OVC006 00/00 A2986 RMK AO2 T00030003
KRYV 260355Z AUTO 28007KT 10SM OVC006 00/00 A2985 RMK AO2 T00030003
KRYV 260335Z AUTO 28005KT 10SM OVC006 00/00 A2985 RMK AO2 T00020002
KRYV 260315Z AUTO 27006KT 7SM UP OVC006 00/00 A2985 RMK AO2 T00020002
KRYV 260255Z AUTO 27006KT 10SM OVC006 00/00 A2985 RMK AO2 T00020002
KRYV 260235Z AUTO 26006KT 10SM OVC008 00/00 A2984 RMK AO2 T00020002
KRYV 260215Z AUTO 27006KT 10SM OVC006 00/00 A2984 RMK AO2 T00020002
KRYV 260155Z AUTO 27004KT 5SM UP OVC006 00/00 A2985 RMK AO2 T00020002
KRYV 260135Z AUTO 26005KT 10SM BKN008 OVC019 00/00 A2985 RMK AO2 T00030003
KRYV 260115Z AUTO 28005KT 10SM SCT010 OVC017 01/01 A2984 RMK AO2 T00050005
KRYV 260055Z AUTO 28005KT 10SM OVC015 01/01 A2984 RMK AO2 T00050005
KRYV 260035Z AUTO 28005KT 10SM OVC012 01/01 A2984 RMK AO2 T00060006
KRYV 260015Z AUTO 27005KT 10SM BKN012 BKN017 OVC024 01/01 A2984 RMK AO2 T00060006
KRYV 252355Z AUTO 27004KT 10SM BKN017 OVC025 01/01 A2983 RMK AO2 T00060006 10010 20003
KRYV 252335Z AUTO 28004KT 10SM OVC015 01/01 A2983 RMK AO2 T00060006
KRYV 252315Z AUTO 28004KT 10SM OVC013 01/01 A2982 RMK AO2 T00060006
KRYV 252255Z AUTO 28005KT 10SM OVC013 01/01 A2982 RMK AO2 T00070007
KRYV 252235Z AUTO 28005KT 10SM OVC013 01/01 A2981 RMK AO2 T00070006
KRYV 252215Z AUTO 29006KT 10SM OVC015 01/01 A2981 RMK AO2 T00080006
KRYV 252155Z AUTO 30007KT 10SM OVC015 01/01 A2981 RMK AO2 T00100005
KRYV 252135Z AUTO 30006KT 10SM BKN015 OVC021 01/01 A2980 RMK AO2 T00100005
KRYV 252115Z AUTO 30005KT 10SM SCT015 BKN021 OVC029 01/00 A2980 RMK AO2 T00100002
KRYV 252055Z AUTO 30005KT 10SM SCT015 BKN023 OVC035 01/00 A2979 RMK AO2 T00100000
KRYV 252035Z AUTO 30005KT 10SM SCT015 SCT026 OVC033 01/00 A2979 RMK AO2 T00100003
KRYV 252015Z AUTO 31005KT 10SM SCT015 BKN024 OVC031 01/01 A2979 RMK AO2 T00080006
KRYV 251955Z AUTO 31005KT 10SM SCT010 SCT016 OVC022 01/01 A2979 RMK AO2 T00070007
KRYV 251935Z AUTO 32007KT 10SM OVC008 01/01 A2979 RMK AO2 T00060006
KRYV 251915Z AUTO 32006KT 10SM OVC008 01/01 A2979 RMK AO2 T00060006
KRYV 251855Z AUTO 32004KT 10SM OVC008 01/01 A2978 RMK AO2 T00060006
KRYV 251835Z AUTO 31006KT 7SM OVC008 01/01 A2979 RMK AO2 T00050005
KRYV 251815Z AUTO 31004KT 4SM BR BKN009 OVC013 00/00 A2979 RMK AO2 T00030003
KRYV 251755Z AUTO 30004KT 7SM -SN SCT007 OVC013 00/00 A2979 RMK AO2 60005 T00030003 10003 20000
KRYV 251735Z AUTO 31005KT 4SM -SN SCT007 OVC016 00/00 A2979 RMK AO2 T00020002
KRYV 251715Z AUTO 32006KT 2 1/2SM -SN OVC007 00/00 A2979 RMK AO2 T00010001
KRYV 251655Z AUTO 31004KT 1 3/4SM -SN OVC007 00/00 A2979 RMK AO2 T00010001
KRYV 251635Z AUTO 30006KT 2 1/2SM -SN OVC009 00/00 A2979 RMK AO2 T00020002
KRYV 251615Z AUTO 29003KT 2 1/2SM -SN OVC005 00/00 A2979 RMK AO2 T00020002
KRYV 251555Z AUTO 28004KT 1 1/4SM -SN OVC005 00/00 A2979 RMK AO2 P0001 T00000000
KRYV 251535Z AUTO 29003KT 1 1/4SM -SN OVC005 00/00 A2979 RMK AO2 T00000000
KRYV 251515Z AUTO 29003KT 2 1/2SM -SN OVC005 00/00 A2979 RMK AO2 T00000000
KRYV 251455Z AUTO 28003KT 1 1/4SM -SN OVC005 00/00 A2978 RMK AO2 P0001 60004 T00000000
KRYV 251435Z AUTO 29003KT 1 1/2SM -SN OVC005 00/00 A2978 RMK AO2 P0001 T00000000
KRYV 251415Z AUTO 29004KT 1 1/4SM -SN OVC005 00/00 A2978 RMK AO2 P0001 T00000000
KRYV 251355Z AUTO 29003KT 1 1/2SM -SN OVC005 00/00 A2978 RMK AO2 P0002 T00000000
KRYV 251335Z AUTO 30004KT 1 3/4SM -SN OVC005 00/00 A2978 RMK AO2 P0001 T00000000
KRYV 251315Z AUTO 29003KT 2 1/2SM -SN OVC005 00/00 A2978 RMK AO2 P0001 T00000000
KRYV 251255Z AUTO 30003KT 2SM -SN OVC005 00/00 A2977 RMK AO2 P0001 T00000000
KRYV 251235Z AUTO 30004KT 2SM -SN OVC005 00/00 A2976 RMK AO2 T00000000
KRYV 251215Z AUTO 29005KT 2 1/2SM -SN OVC005 00/00 A2976 RMK AO2 T00000000
KRYV 251155Z AUTO 30004KT 7SM -SN OVC005 00/00 A2975 RMK AO2 60005 70018 T00000000 10000 20000
KRYV 251135Z AUTO 29003KT 4SM -SN OVC005 00/00 A2975 RMK AO2 T00000000
KRYV 251115Z AUTO 30003KT 3SM -SN OVC005 00/00 A2975 RMK AO2 T00000000
KRYV 251055Z AUTO 00000KT 2 1/2SM UP OVC005 00/00 A2974 RMK AO2 P0002 T00000000
KRYV 251035Z AUTO 00000KT 2SM -SN OVC005 00/00 A2974 RMK AO2 P0001 T00000000
KRYV 251015Z AUTO 31003KT 2 1/2SM -SN OVC005 00/00 A2974 RMK AO2 T00000000
KRYV 250955Z AUTO 29003KT 3SM UP OVC005 00/00 A2974 RMK AO2 T00000000
KRYV 250935Z AUTO 31003KT 4SM UP OVC005 00/00 A2975 RMK AO2 T00000000
KRYV 250915Z AUTO 30003KT 5SM BR OVC005 00/00 A2975 RMK AO2 T00000000
KRYV 250855Z AUTO 31003KT 5SM -SN OVC005 00/00 A2975 RMK AO2 60003 T00000000
KRYV 250835Z AUTO 30003KT 4SM -SN OVC003 00/00 A2975 RMK AO2 T00000000
KRYV 250815Z AUTO 33003KT 3SM -SN OVC003 00/00 A2976 RMK AO2 T00000000
KRYV 250755Z AUTO 31003KT 2SM -SN OVC003 00/00 A2976 RMK AO2 P0002 T00000000
KRYV 250735Z AUTO 31003KT 1 3/4SM -SN OVC003 00/00 A2975 RMK AO2 P0002 T00000000
KRYV 250715Z AUTO 00000KT 2SM -SN OVC003 00/00 A2975 RMK AO2 T00000000
KRYV 250655Z AUTO 32003KT 2 1/2SM -SN OVC003 00/00 A2975 RMK AO2 T00000000
KRYV 250635Z AUTO 00000KT 3SM UP OVC003 00/00 A2975 RMK AO2 T00000000
KRYV 250615Z AUTO 33004KT 4SM -SN OVC003 00/00 A2975 RMK AO2 T00000000
KRYV 250555Z AUTO 32004KT 4SM -SN OVC003 00/00 A2975 RMK AO2 60013 T00000000 10007 20000 400150000
KRYV 250535Z AUTO 33003KT 4SM -SN OVC003 00/00 A2976 RMK AO2 T00000000
KRYV 250515Z AUTO 33004KT 3SM UP OVC003 00/00 A2977 RMK AO2 T00000000
KRYV 250455Z AUTO 35004KT 4SM -SN OVC003 00/00 A2977 RMK AO2 T00000000
KRYV 250435Z AUTO 35003KT 4SM UP OVC003 00/00 A2977 RMK AO2 T00000000
KRYV 250415Z AUTO 34004KT 5SM -SN OVC003 00/00 A2978 RMK AO2 T00000000
KRYV 250355Z AUTO 35004KT 3SM UP OVC003 00/00 A2978 RMK AO2 P0001 T00000000
KRYV 250335Z AUTO 34003KT 2SM -SN OVC003 00/00 A2978 RMK AO2 P0001 T00000000
KRYV 250315Z AUTO 34003KT 2 1/2SM UP OVC003 00/00 A2979 RMK AO2 T00000000
KRYV 250255Z AUTO 00000KT 2 1/2SM UP OVC003 00/00 A2979 RMK AO2 P0003 60012 T00000000
KRYV 250235Z AUTO 36003KT 2SM -SN OVC003 00/00 A2979 RMK AO2 P0002 T00000000
KRYV 250215Z AUTO 35003KT 1 3/4SM -SN BKN003 OVC011 00/00 A2979 RMK AO2 P0002 T00000000
KRYV 250155Z AUTO 36003KT 1 1/2SM -SN BKN003 OVC009 00/00 A2979 RMK AO2 P0005 T00000000
KRYV 250135Z AUTO 00000KT 1 1/2SM -SN OVC003 00/00 A2980 RMK AO2 P0003 T00000000
KRYV 250115Z AUTO 00000KT 1 3/4SM UP OVC003 00/00 A2981 RMK AO2 P0001 T00000000
KRYV 250055Z AUTO 35003KT 1 3/4SM UP OVC003 00/00 A2980 RMK AO2 P0004 T00000000
KRYV 250035Z AUTO 36003KT 2 1/2SM UP OVC003 00/00 A2980 RMK AO2 P0002 T00010001
KRYV 250015Z AUTO 01004KT 3SM RA OVC003 01/01 A2981 RMK AO2 P0001 T00050005
KRYV 242355Z AUTO 01004KT 1 1/4SM -RA OVC003 01/01 A2981 RMK AO2 T00070007 10015 20007
KRYV 242335Z AUTO 36004KT 3/4SM -RA OVC003 01/01 A2981 RMK AO2 T00080008
KRYV 242315Z AUTO 36003KT 1SM -RA OVC003 01/01 A2980 RMK AO2 T00080008
KRYV 242255Z AUTO 36004KT 1/2SM FG OVC003 01/01 A2980 RMK AO2 T00100010
KRYV 242235Z AUTO 01004KT 1/2SM FG OVC003 01/01 A2981 RMK AO2 T00100010
KRYV 242215Z AUTO 01004KT 1/2SM FG OVC003 01/01 A2981 RMK AO2 T00100010
KRYV 242155Z AUTO 36004KT 1/2SM FG OVC003 01/01 A2981 RMK AO2 T00100010
KRYV 242135Z AUTO 36005KT 1/2SM FG OVC003 01/01 A2981 RMK AO2 T00110011
KRYV 242115Z AUTO 36004KT 3/4SM BR OVC003 01/01 A2981 RMK AO2 T00130013